sensor_id;sensor_type;location;lat;lon;timestamp;pressure;altitude;pressure_sealevel;temperature
70819;BMP280;58439;51.046;13.692;2023-02-03T00:00:30;100740.09;;;3.45
70819;BMP280;58439;51.046;13.692;2023-02-03T00:03:05;100727.84;;;3.47
70819;BMP280;58439;51.046;13.692;2023-02-03T00:05:33;100728.66;;;3.48
70819;BMP280;58439;51.046;13.692;2023-02-03T00:08:02;100723.50;;;3.48
70819;BMP280;58439;51.046;13.692;2023-02-03T00:10:29;100727.59;;;3.50
70819;BMP280;58439;51.046;13.692;2023-02-03T00:12:56;100723.22;;;3.51
70819;BMP280;58439;51.046;13.692;2023-02-03T00:15:24;100724.88;;;3.52
70819;BMP280;58439;51.046;13.692;2023-02-03T00:17:54;100723.00;;;3.54
70819;BMP280;58439;51.046;13.692;2023-02-03T00:20:22;100711.59;;;3.57
70819;BMP280;58439;51.046;13.692;2023-02-03T00:27:34;100720.84;;;3.59
70819;BMP280;58439;51.046;13.692;2023-02-03T00:30:05;100726.97;;;3.58
70819;BMP280;58439;51.046;13.692;2023-02-03T00:32:32;100724.25;;;3.60
70819;BMP280;58439;51.046;13.692;2023-02-03T00:34:59;100719.78;;;3.62
70819;BMP280;58439;51.046;13.692;2023-02-03T00:37:27;100709.44;;;3.62
70819;BMP280;58439;51.046;13.692;2023-02-03T00:39:54;100704.84;;;3.65
70819;BMP280;58439;51.046;13.692;2023-02-03T00:42:21;100702.75;;;3.59
70819;BMP280;58439;51.046;13.692;2023-02-03T00:44:48;100699.84;;;3.52
70819;BMP280;58439;51.046;13.692;2023-02-03T00:47:16;100681.69;;;3.43
70819;BMP280;58439;51.046;13.692;2023-02-03T00:49:43;100679.97;;;3.32
70819;BMP280;58439;51.046;13.692;2023-02-03T00:52:10;100677.63;;;3.29
70819;BMP280;58439;51.046;13.692;2023-02-03T00:54:38;100672.72;;;3.26
70819;BMP280;58439;51.046;13.692;2023-02-03T00:57:05;100671.22;;;3.23
70819;BMP280;58439;51.046;13.692;2023-02-03T00:59:32;100659.38;;;3.21
70819;BMP280;58439;51.046;13.692;2023-02-03T01:01:59;100650.91;;;3.19
70819;BMP280;58439;51.046;13.692;2023-02-03T01:04:26;100648.56;;;3.16
70819;BMP280;58439;51.046;13.692;2023-02-03T01:06:53;100644.34;;;3.15
70819;BMP280;58439;51.046;13.692;2023-02-03T01:09:25;100643.75;;;3.11
70819;BMP280;58439;51.046;13.692;2023-02-03T01:11:53;100638.84;;;3.08
70819;BMP280;58439;51.046;13.692;2023-02-03T01:14:20;100632.84;;;3.08
70819;BMP280;58439;51.046;13.692;2023-02-03T01:16:47;100628.88;;;3.04
70819;BMP280;58439;51.046;13.692;2023-02-03T01:19:16;100617.03;;;3.01
70819;BMP280;58439;51.046;13.692;2023-02-03T01:21:44;100615.50;;;2.98
70819;BMP280;58439;51.046;13.692;2023-02-03T01:24:11;100608.03;;;2.95
70819;BMP280;58439;51.046;13.692;2023-02-03T01:26:38;100601.47;;;2.91
70819;BMP280;58439;51.046;13.692;2023-02-03T01:29:05;100604.41;;;2.87
70819;BMP280;58439;51.046;13.692;2023-02-03T01:31:35;100594.91;;;2.87
70819;BMP280;58439;51.046;13.692;2023-02-03T01:34:12;100581.53;;;2.82
70819;BMP280;58439;51.046;13.692;2023-02-03T01:36:40;100579.91;;;2.81
70819;BMP280;58439;51.046;13.692;2023-02-03T01:39:07;100574.03;;;2.79
70819;BMP280;58439;51.046;13.692;2023-02-03T01:41:36;100558.66;;;2.78
70819;BMP280;58439;51.046;13.692;2023-02-03T01:44:43;100554.41;;;2.76
70819;BMP280;58439;51.046;13.692;2023-02-03T01:47:24;100560.78;;;2.72
70819;BMP280;58439;51.046;13.692;2023-02-03T01:50:07;100559.97;;;2.72
70819;BMP280;58439;51.046;13.692;2023-02-03T01:52:44;100562.53;;;2.72
70819;BMP280;58439;51.046;13.692;2023-02-03T01:55:19;100557.38;;;2.72
70819;BMP280;58439;51.046;13.692;2023-02-03T01:57:53;100549.63;;;2.72
70819;BMP280;58439;51.046;13.692;2023-02-03T02:00:22;100548.56;;;2.74
70819;BMP280;58439;51.046;13.692;2023-02-03T02:02:52;100538.00;;;2.78
70819;BMP280;58439;51.046;13.692;2023-02-03T02:05:37;100526.72;;;2.79
70819;BMP280;58439;51.046;13.692;2023-02-03T02:08:06;100518.97;;;2.79
70819;BMP280;58439;51.046;13.692;2023-02-03T02:10:34;100512.03;;;2.79
70819;BMP280;58439;51.046;13.692;2023-02-03T02:13:03;100501.56;;;2.81
70819;BMP280;58439;51.046;13.692;2023-02-03T02:16:11;100502.16;;;2.84
70819;BMP280;58439;51.046;13.692;2023-02-03T02:22:08;100493.22;;;2.88
70819;BMP280;58439;51.046;13.692;2023-02-03T02:27:41;100491.44;;;2.89
70819;BMP280;58439;51.046;13.692;2023-02-03T02:33:47;100469.59;;;2.93
70819;BMP280;58439;51.046;13.692;2023-02-03T02:36:32;100473.69;;;2.95
70819;BMP280;58439;51.046;13.692;2023-02-03T02:39:14;100459.13;;;2.94
70819;BMP280;58439;51.046;13.692;2023-02-03T02:41:55;100455.31;;;2.98
70819;BMP280;58439;51.046;13.692;2023-02-03T02:44:51;100453.56;;;2.99
70819;BMP280;58439;51.046;13.692;2023-02-03T02:47:21;100448.38;;;2.99
70819;BMP280;58439;51.046;13.692;2023-02-03T02:54:02;100428.84;;;3.06
70819;BMP280;58439;51.046;13.692;2023-02-03T02:56:33;100419.19;;;3.08
70819;BMP280;58439;51.046;13.692;2023-02-03T02:59:03;100414.59;;;3.12
70819;BMP280;58439;51.046;13.692;2023-02-03T03:01:31;100399.78;;;3.14
70819;BMP280;58439;51.046;13.692;2023-02-03T03:04:04;100394.38;;;3.17
70819;BMP280;58439;51.046;13.692;2023-02-03T03:06:41;100385.94;;;3.24
70819;BMP280;58439;51.046;13.692;2023-02-03T03:12:18;100365.19;;;3.45
70819;BMP280;58439;51.046;13.692;2023-02-03T03:15:01;100355.94;;;3.62
70819;BMP280;58439;51.046;13.692;2023-02-03T03:17:33;100357.16;;;3.77
70819;BMP280;58439;51.046;13.692;2023-02-03T03:20:05;100357.97;;;3.97
70819;BMP280;58439;51.046;13.692;2023-02-03T03:22:53;100345.84;;;4.17
70819;BMP280;58439;51.046;13.692;2023-02-03T03:25:44;100344.28;;;4.34
70819;BMP280;58439;51.046;13.692;2023-02-03T03:28:19;100337.69;;;4.49
70819;BMP280;58439;51.046;13.692;2023-02-03T03:30:49;100330.56;;;4.61
70819;BMP280;58439;51.046;13.692;2023-02-03T03:33:17;100336.66;;;4.70
70819;BMP280;58439;51.046;13.692;2023-02-03T03:35:49;100329.94;;;4.77
70819;BMP280;58439;51.046;13.692;2023-02-03T03:42:08;100337.53;;;4.88
70819;BMP280;58439;51.046;13.692;2023-02-03T03:44:41;100324.97;;;4.93
70819;BMP280;58439;51.046;13.692;2023-02-03T03:50:00;100330.50;;;4.98
70819;BMP280;58439;51.046;13.692;2023-02-03T03:52:31;100320.81;;;5.00
70819;BMP280;58439;51.046;13.692;2023-02-03T03:55:04;100321.06;;;5.07
70819;BMP280;58439;51.046;13.692;2023-02-03T04:00:24;100317.31;;;5.19
70819;BMP280;58439;51.046;13.692;2023-02-03T04:02:55;100305.81;;;5.22
70819;BMP280;58439;51.046;13.692;2023-02-03T04:05:24;100300.06;;;5.28
70819;BMP280;58439;51.046;13.692;2023-02-03T04:07:51;100291.81;;;5.32
70819;BMP280;58439;51.046;13.692;2023-02-03T04:10:36;100269.34;;;5.41
70819;BMP280;58439;51.046;13.692;2023-02-03T04:13:06;100252.91;;;5.50
70819;BMP280;58439;51.046;13.692;2023-02-03T04:15:33;100254.22;;;5.54
70819;BMP280;58439;51.046;13.692;2023-02-03T04:18:01;100248.59;;;5.59
70819;BMP280;58439;51.046;13.692;2023-02-03T04:20:29;100251.34;;;5.66
70819;BMP280;58439;51.046;13.692;2023-02-03T04:22:58;100250.72;;;5.64
70819;BMP280;58439;51.046;13.692;2023-02-03T04:25:25;100241.38;;;5.71
70819;BMP280;58439;51.046;13.692;2023-02-03T04:27:54;100239.06;;;5.68
70819;BMP280;58439;51.046;13.692;2023-02-03T04:30:27;100231.66;;;5.73
70819;BMP280;58439;51.046;13.692;2023-02-03T04:32:55;100234.09;;;5.74
70819;BMP280;58439;51.046;13.692;2023-02-03T04:35:26;100245.44;;;5.73
70819;BMP280;58439;51.046;13.692;2023-02-03T04:37:56;100238.81;;;5.79
70819;BMP280;58439;51.046;13.692;2023-02-03T04:40:24;100237.03;;;5.79
70819;BMP280;58439;51.046;13.692;2023-02-03T04:42:52;100262.06;;;5.89
70819;BMP280;58439;51.046;13.692;2023-02-03T04:45:19;100240.81;;;5.93
70819;BMP280;58439;51.046;13.692;2023-02-03T04:47:52;100247.00;;;5.92
70819;BMP280;58439;51.046;13.692;2023-02-03T04:50:26;100246.19;;;5.92
70819;BMP280;58439;51.046;13.692;2023-02-03T04:52:53;100247.00;;;5.92
70819;BMP280;58439;51.046;13.692;2023-02-03T04:55:20;100249.25;;;5.87
70819;BMP280;58439;51.046;13.692;2023-02-03T04:57:47;100244.72;;;5.89
70819;BMP280;58439;51.046;13.692;2023-02-03T05:00:15;100240.50;;;5.88
70819;BMP280;58439;51.046;13.692;2023-02-03T05:02:42;100236.56;;;5.84
70819;BMP280;58439;51.046;13.692;2023-02-03T05:05:09;100235.47;;;5.86
70819;BMP280;58439;51.046;13.692;2023-02-03T05:07:36;100240.94;;;5.83
70819;BMP280;58439;51.046;13.692;2023-02-03T05:10:07;100238.06;;;5.86
70819;BMP280;58439;51.046;13.692;2023-02-03T05:12:35;100231.91;;;5.88
70819;BMP280;58439;51.046;13.692;2023-02-03T05:15:14;100238.34;;;5.83
70819;BMP280;58439;51.046;13.692;2023-02-03T05:17:41;100220.72;;;5.87
70819;BMP280;58439;51.046;13.692;2023-02-03T05:20:08;100211.66;;;5.91
70819;BMP280;58439;51.046;13.692;2023-02-03T05:22:38;100214.25;;;5.91
70819;BMP280;58439;51.046;13.692;2023-02-03T05:25:06;100223.63;;;5.92
70819;BMP280;58439;51.046;13.692;2023-02-03T05:27:33;100204.47;;;5.93
70819;BMP280;58439;51.046;13.692;2023-02-03T05:30:00;100195.75;;;5.94
70819;BMP280;58439;51.046;13.692;2023-02-03T05:32:27;100193.00;;;5.96
70819;BMP280;58439;51.046;13.692;2023-02-03T05:34:54;100179.34;;;5.94
70819;BMP280;58439;51.046;13.692;2023-02-03T05:37:22;100166.06;;;5.97
70819;BMP280;58439;51.046;13.692;2023-02-03T05:39:49;100178.56;;;6.01
70819;BMP280;58439;51.046;13.692;2023-02-03T05:42:17;100175.31;;;5.99
70819;BMP280;58439;51.046;13.692;2023-02-03T05:44:45;100175.50;;;5.98
70819;BMP280;58439;51.046;13.692;2023-02-03T05:47:12;100168.81;;;5.95
70819;BMP280;58439;51.046;13.692;2023-02-03T05:49:39;100181.50;;;5.98
70819;BMP280;58439;51.046;13.692;2023-02-03T05:52:07;100188.16;;;6.01
70819;BMP280;58439;51.046;13.692;2023-02-03T05:54:37;100192.53;;;6.00
70819;BMP280;58439;51.046;13.692;2023-02-03T05:57:04;100205.22;;;6.03
70819;BMP280;58439;51.046;13.692;2023-02-03T05:59:34;100205.75;;;6.15
70819;BMP280;58439;51.046;13.692;2023-02-03T06:02:09;100193.41;;;6.17
70819;BMP280;58439;51.046;13.692;2023-02-03T06:04:36;100173.91;;;6.13
70819;BMP280;58439;51.046;13.692;2023-02-03T06:07:03;100197.97;;;6.23
70819;BMP280;58439;51.046;13.692;2023-02-03T06:09:30;100201.69;;;6.21
70819;BMP280;58439;51.046;13.692;2023-02-03T06:12:03;100189.53;;;6.21
70819;BMP280;58439;51.046;13.692;2023-02-03T06:14:35;100189.38;;;6.23
70819;BMP280;58439;51.046;13.692;2023-02-03T06:17:09;100185.84;;;6.32
70819;BMP280;58439;51.046;13.692;2023-02-03T06:19:36;100178.03;;;6.32
70819;BMP280;58439;51.046;13.692;2023-02-03T06:22:28;100185.66;;;6.25
70819;BMP280;58439;51.046;13.692;2023-02-03T06:25:21;100173.16;;;6.29
70819;BMP280;58439;51.046;13.692;2023-02-03T06:27:50;100168.63;;;6.31
70819;BMP280;58439;51.046;13.692;2023-02-03T06:30:18;100164.25;;;6.31
70819;BMP280;58439;51.046;13.692;2023-02-03T06:32:47;100152.38;;;6.29
70819;BMP280;58439;51.046;13.692;2023-02-03T06:35:14;100161.81;;;6.38
70819;BMP280;58439;51.046;13.692;2023-02-03T06:37:50;100158.41;;;6.37
70819;BMP280;58439;51.046;13.692;2023-02-03T06:40:41;100164.44;;;6.46
70819;BMP280;58439;51.046;13.692;2023-02-03T06:43:08;100153.72;;;6.49
70819;BMP280;58439;51.046;13.692;2023-02-03T06:45:35;100135.06;;;6.46
70819;BMP280;58439;51.046;13.692;2023-02-03T06:48:02;100158.53;;;6.36
70819;BMP280;58439;51.046;13.692;2023-02-03T06:50:30;100136.16;;;6.35
70819;BMP280;58439;51.046;13.692;2023-02-03T06:52:57;100126.09;;;6.32
70819;BMP280;58439;51.046;13.692;2023-02-03T06:55:25;100122.19;;;6.28
70819;BMP280;58439;51.046;13.692;2023-02-03T06:57:52;100122.00;;;6.21
70819;BMP280;58439;51.046;13.692;2023-02-03T07:00:19;100122.19;;;6.20
70819;BMP280;58439;51.046;13.692;2023-02-03T07:02:53;100119.06;;;6.24
70819;BMP280;58439;51.046;13.692;2023-02-03T07:05:22;100101.06;;;6.23
70819;BMP280;58439;51.046;13.692;2023-02-03T07:07:51;100093.09;;;6.24
70819;BMP280;58439;51.046;13.692;2023-02-03T07:10:18;100085.47;;;6.23
70819;BMP280;58439;51.046;13.692;2023-02-03T07:12:45;100088.06;;;6.23
70819;BMP280;58439;51.046;13.692;2023-02-03T07:15:12;100087.09;;;6.24
70819;BMP280;58439;51.046;13.692;2023-02-03T07:17:40;100086.78;;;6.27
70819;BMP280;58439;51.046;13.692;2023-02-03T07:20:37;100080.78;;;6.26
70819;BMP280;58439;51.046;13.692;2023-02-03T07:23:08;100061.47;;;6.29
70819;BMP280;58439;51.046;13.692;2023-02-03T07:26:03;100068.94;;;6.32
70819;BMP280;58439;51.046;13.692;2023-02-03T07:28:33;100069.09;;;6.38
70819;BMP280;58439;51.046;13.692;2023-02-03T07:31:01;100058.53;;;6.48
70819;BMP280;58439;51.046;13.692;2023-02-03T07:33:30;100070.25;;;6.52
70819;BMP280;58439;51.046;13.692;2023-02-03T07:35:58;100069.13;;;6.55
70819;BMP280;58439;51.046;13.692;2023-02-03T07:38:27;100073.84;;;6.59
70819;BMP280;58439;51.046;13.692;2023-02-03T07:40:54;100077.69;;;6.88
70819;BMP280;58439;51.046;13.692;2023-02-03T07:43:22;100065.50;;;6.88
70819;BMP280;58439;51.046;13.692;2023-02-03T07:45:49;100052.53;;;6.97
70819;BMP280;58439;51.046;13.692;2023-02-03T07:48:17;100054.94;;;6.98
70819;BMP280;58439;51.046;13.692;2023-02-03T07:53:49;100051.72;;;6.63
70819;BMP280;58439;51.046;13.692;2023-02-03T07:56:16;100058.09;;;6.53
70819;BMP280;58439;51.046;13.692;2023-02-03T07:58:44;100050.13;;;6.46
70819;BMP280;58439;51.046;13.692;2023-02-03T08:01:36;100047.34;;;6.39
70819;BMP280;58439;51.046;13.692;2023-02-03T08:04:03;100057.09;;;6.37
70819;BMP280;58439;51.046;13.692;2023-02-03T08:07:10;100056.13;;;6.30
70819;BMP280;58439;51.046;13.692;2023-02-03T08:09:38;100031.59;;;6.33
70819;BMP280;58439;51.046;13.692;2023-02-03T08:12:38;100036.47;;;6.28
70819;BMP280;58439;51.046;13.692;2023-02-03T08:15:06;100029.84;;;6.25
70819;BMP280;58439;51.046;13.692;2023-02-03T08:17:37;100024.16;;;6.30
70819;BMP280;58439;51.046;13.692;2023-02-03T08:23:00;100019.44;;;6.42
70819;BMP280;58439;51.046;13.692;2023-02-03T08:25:27;100026.44;;;6.41
70819;BMP280;58439;51.046;13.692;2023-02-03T08:27:55;100012.13;;;6.37
70819;BMP280;58439;51.046;13.692;2023-02-03T08:30:22;100014.06;;;6.35
70819;BMP280;58439;51.046;13.692;2023-02-03T08:32:50;100016.34;;;6.38
70819;BMP280;58439;51.046;13.692;2023-02-03T08:35:17;100010.00;;;6.40
70819;BMP280;58439;51.046;13.692;2023-02-03T08:37:45;100020.25;;;6.42
70819;BMP280;58439;51.046;13.692;2023-02-03T08:40:12;100017.34;;;6.45
70819;BMP280;58439;51.046;13.692;2023-02-03T08:42:40;100009.69;;;6.44
70819;BMP280;58439;51.046;13.692;2023-02-03T08:45:07;100000.91;;;6.45
70819;BMP280;58439;51.046;13.692;2023-02-03T08:47:35;99997.50;;;6.44
70819;BMP280;58439;51.046;13.692;2023-02-03T08:50:07;99994.25;;;6.50
70819;BMP280;58439;51.046;13.692;2023-02-03T08:52:34;99970.88;;;6.50
70819;BMP280;58439;51.046;13.692;2023-02-03T08:55:01;99991.78;;;6.49
70819;BMP280;58439;51.046;13.692;2023-02-03T08:57:35;100003.38;;;6.46
70819;BMP280;58439;51.046;13.692;2023-02-03T09:00:08;99994.91;;;6.44
70819;BMP280;58439;51.046;13.692;2023-02-03T09:02:35;99994.09;;;6.44
70819;BMP280;58439;51.046;13.692;2023-02-03T09:05:05;100002.03;;;6.50
70819;BMP280;58439;51.046;13.692;2023-02-03T09:07:33;99997.00;;;6.49
70819;BMP280;58439;51.046;13.692;2023-02-03T09:10:00;99987.78;;;6.46
70819;BMP280;58439;51.046;13.692;2023-02-03T09:12:27;99965.38;;;6.45
70819;BMP280;58439;51.046;13.692;2023-02-03T09:14:54;99956.59;;;6.46
70819;BMP280;58439;51.046;13.692;2023-02-03T09:17:21;99920.84;;;6.48
70819;BMP280;58439;51.046;13.692;2023-02-03T09:19:48;99961.47;;;6.49
70819;BMP280;58439;51.046;13.692;2023-02-03T09:22:15;99948.97;;;6.45
70819;BMP280;58439;51.046;13.692;2023-02-03T09:28:18;99939.38;;;6.53
70819;BMP280;58439;51.046;13.692;2023-02-03T09:30:45;99907.53;;;6.51
70819;BMP280;58439;51.046;13.692;2023-02-03T09:40:34;99897.47;;;6.48
70819;BMP280;58439;51.046;13.692;2023-02-03T09:43:11;99899.09;;;6.57
70819;BMP280;58439;51.046;13.692;2023-02-03T09:55:41;99852.00;;;6.52
70819;BMP280;58439;51.046;13.692;2023-02-03T09:58:21;99849.41;;;6.52
70819;BMP280;58439;51.046;13.692;2023-02-03T10:00:51;99847.63;;;6.53
70819;BMP280;58439;51.046;13.692;2023-02-03T10:13:30;99826.63;;;6.62
70819;BMP280;58439;51.046;13.692;2023-02-03T10:16:49;99828.25;;;6.63
70819;BMP280;58439;51.046;13.692;2023-02-03T10:19:22;99815.56;;;6.69
70819;BMP280;58439;51.046;13.692;2023-02-03T10:21:57;99810.34;;;6.69
70819;BMP280;58439;51.046;13.692;2023-02-03T10:24:35;99799.50;;;6.65
70819;BMP280;58439;51.046;13.692;2023-02-03T10:27:05;99806.31;;;6.66
70819;BMP280;58439;51.046;13.692;2023-02-03T10:29:41;99811.03;;;6.62
70819;BMP280;58439;51.046;13.692;2023-02-03T10:32:12;99798.53;;;6.66
70819;BMP280;58439;51.046;13.692;2023-02-03T10:34:43;99807.13;;;6.66
70819;BMP280;58439;51.046;13.692;2023-02-03T10:37:29;99794.13;;;6.66
70819;BMP280;58439;51.046;13.692;2023-02-03T10:39:58;99784.03;;;6.72
70819;BMP280;58439;51.046;13.692;2023-02-03T10:42:29;99787.28;;;6.74
70819;BMP280;58439;51.046;13.692;2023-02-03T10:45:17;99794.06;;;6.75
70819;BMP280;58439;51.046;13.692;2023-02-03T10:47:51;99780.50;;;6.73
70819;BMP280;58439;51.046;13.692;2023-02-03T10:50:28;99768.91;;;6.75
70819;BMP280;58439;51.046;13.692;2023-02-03T10:53:25;99766.25;;;6.83
70819;BMP280;58439;51.046;13.692;2023-02-03T10:58:29;99765.63;;;6.81
70819;BMP280;58439;51.046;13.692;2023-02-03T11:01:04;99754.88;;;6.84
70819;BMP280;58439;51.046;13.692;2023-02-03T11:03:33;99740.28;;;6.83
70819;BMP280;58439;51.046;13.692;2023-02-03T11:06:08;99746.28;;;6.84
70819;BMP280;58439;51.046;13.692;2023-02-03T11:12:17;99747.75;;;6.86
70819;BMP280;58439;51.046;13.692;2023-02-03T11:15:22;99747.53;;;6.88
70819;BMP280;58439;51.046;13.692;2023-02-03T11:18:03;99758.25;;;6.93
70819;BMP280;58439;51.046;13.692;2023-02-03T11:20:38;99733.13;;;7.00
70819;BMP280;58439;51.046;13.692;2023-02-03T11:23:05;99750.66;;;7.06
70819;BMP280;58439;51.046;13.692;2023-02-03T11:25:34;99738.66;;;7.05
70819;BMP280;58439;51.046;13.692;2023-02-03T11:28:04;99719.94;;;7.10
70819;BMP280;58439;51.046;13.692;2023-02-03T11:30:34;99726.13;;;7.09
70819;BMP280;58439;51.046;13.692;2023-02-03T11:33:01;99733.75;;;7.10
70819;BMP280;58439;51.046;13.692;2023-02-03T11:35:29;99751.59;;;7.13
70819;BMP280;58439;51.046;13.692;2023-02-03T11:37:59;99731.16;;;7.10
70819;BMP280;58439;51.046;13.692;2023-02-03T11:40:44;99743.44;;;7.16
70819;BMP280;58439;51.046;13.692;2023-02-03T11:43:30;99732.06;;;7.17
70819;BMP280;58439;51.046;13.692;2023-02-03T11:46:03;99700.25;;;7.30
70819;BMP280;58439;51.046;13.692;2023-02-03T11:48:36;99735.66;;;7.16
70819;BMP280;58439;51.046;13.692;2023-02-03T11:53:46;99715.31;;;7.20
70819;BMP280;58439;51.046;13.692;2023-02-03T11:59:27;99710.38;;;7.25
70819;BMP280;58439;51.046;13.692;2023-02-03T12:08:07;99634.59;;;7.43
70819;BMP280;58439;51.046;13.692;2023-02-03T12:13:46;99584.44;;;7.49
70819;BMP280;58439;51.046;13.692;2023-02-03T12:19:31;99623.97;;;7.59
70819;BMP280;58439;51.046;13.692;2023-02-03T12:24:55;99640.50;;;7.66
70819;BMP280;58439;51.046;13.692;2023-02-03T12:27:44;99654.59;;;7.57
70819;BMP280;58439;51.046;13.692;2023-02-03T12:30:21;99648.75;;;7.55
70819;BMP280;58439;51.046;13.692;2023-02-03T12:32:54;99647.38;;;7.59
70819;BMP280;58439;51.046;13.692;2023-02-03T12:35:31;99653.44;;;7.60
70819;BMP280;58439;51.046;13.692;2023-02-03T12:38:13;99655.84;;;7.61
70819;BMP280;58439;51.046;13.692;2023-02-03T12:40:51;99647.50;;;7.66
70819;BMP280;58439;51.046;13.692;2023-02-03T12:46:36;99630.53;;;7.70
70819;BMP280;58439;51.046;13.692;2023-02-03T12:57:43;99611.22;;;7.79
70819;BMP280;58439;51.046;13.692;2023-02-03T13:00:36;99624.41;;;7.78
70819;BMP280;58439;51.046;13.692;2023-02-03T13:03:13;99625.28;;;7.85
70819;BMP280;58439;51.046;13.692;2023-02-03T13:05:47;99629.97;;;7.74
70819;BMP280;58439;51.046;13.692;2023-02-03T13:11:23;99641.31;;;7.67
70819;BMP280;58439;51.046;13.692;2023-02-03T13:13:57;99680.44;;;7.59
70819;BMP280;58439;51.046;13.692;2023-02-03T13:16:34;99740.91;;;7.61
70819;BMP280;58439;51.046;13.692;2023-02-03T13:19:09;99723.78;;;6.68
70819;BMP280;58439;51.046;13.692;2023-02-03T13:21:39;99724.25;;;6.09
70819;BMP280;58439;51.046;13.692;2023-02-03T13:24:09;99704.25;;;5.79
70819;BMP280;58439;51.046;13.692;2023-02-03T13:26:46;99699.47;;;5.99
70819;BMP280;58439;51.046;13.692;2023-02-03T13:29:44;99719.72;;;6.11
70819;BMP280;58439;51.046;13.692;2023-02-03T13:32:50;99717.69;;;6.30
70819;BMP280;58439;51.046;13.692;2023-02-03T13:35:23;99729.81;;;6.37
70819;BMP280;58439;51.046;13.692;2023-02-03T13:38:33;99729.47;;;6.40
70819;BMP280;58439;51.046;13.692;2023-02-03T13:43:47;99737.69;;;6.52
70819;BMP280;58439;51.046;13.692;2023-02-03T13:46:35;99738.84;;;6.50
70819;BMP280;58439;51.046;13.692;2023-02-03T13:49:04;99729.63;;;6.47
70819;BMP280;58439;51.046;13.692;2023-02-03T13:51:51;99741.13;;;6.53
70819;BMP280;58439;51.046;13.692;2023-02-03T13:54:47;99741.88;;;6.61
70819;BMP280;58439;51.046;13.692;2023-02-03T14:05:58;99760.75;;;7.09
70819;BMP280;58439;51.046;13.692;2023-02-03T14:16:40;99779.78;;;7.25
70819;BMP280;58439;51.046;13.692;2023-02-03T14:19:52;99783.38;;;7.24
70819;BMP280;58439;51.046;13.692;2023-02-03T14:22:07;99777.59;;;7.13
70819;BMP280;58439;51.046;13.692;2023-02-03T14:24:40;99791.13;;;7.09
70819;BMP280;58439;51.046;13.692;2023-02-03T14:27:20;99787.06;;;7.06
70819;BMP280;58439;51.046;13.692;2023-02-03T14:30:09;99773.19;;;7.14
70819;BMP280;58439;51.046;13.692;2023-02-03T14:32:50;99797.53;;;7.21
70819;BMP280;58439;51.046;13.692;2023-02-03T14:35:21;99786.97;;;7.23
70819;BMP280;58439;51.046;13.692;2023-02-03T14:38:10;99785.53;;;7.20
70819;BMP280;58439;51.046;13.692;2023-02-03T14:40:41;99809.38;;;7.24
70819;BMP280;58439;51.046;13.692;2023-02-03T14:43:48;99794.59;;;7.24
70819;BMP280;58439;51.046;13.692;2023-02-03T14:54:57;99834.63;;;7.15
70819;BMP280;58439;51.046;13.692;2023-02-03T14:57:37;99819.81;;;7.15
70819;BMP280;58439;51.046;13.692;2023-02-03T15:00:30;99804.59;;;7.12
70819;BMP280;58439;51.046;13.692;2023-02-03T15:03:17;99806.25;;;7.05
70819;BMP280;58439;51.046;13.692;2023-02-03T15:05:52;99807.41;;;7.03
70819;BMP280;58439;51.046;13.692;2023-02-03T15:11:22;99808.53;;;7.08
70819;BMP280;58439;51.046;13.692;2023-02-03T15:13:50;99829.81;;;7.04
70819;BMP280;58439;51.046;13.692;2023-02-03T15:16:19;99828.19;;;7.03
70819;BMP280;58439;51.046;13.692;2023-02-03T15:18:55;99829.56;;;6.99
70819;BMP280;58439;51.046;13.692;2023-02-03T15:21:30;99837.84;;;6.94
70819;BMP280;58439;51.046;13.692;2023-02-03T15:23:58;99838.84;;;6.93
70819;BMP280;58439;51.046;13.692;2023-02-03T15:26:26;99843.97;;;7.01
70819;BMP280;58439;51.046;13.692;2023-02-03T15:29:01;99834.22;;;7.03
70819;BMP280;58439;51.046;13.692;2023-02-03T15:31:34;99845.28;;;7.05
70819;BMP280;58439;51.046;13.692;2023-02-03T15:34:12;99847.22;;;7.03
70819;BMP280;58439;51.046;13.692;2023-02-03T15:36:49;99865.88;;;7.07
70819;BMP280;58439;51.046;13.692;2023-02-03T15:39:33;99863.41;;;7.13
70819;BMP280;58439;51.046;13.692;2023-02-03T15:42:08;99858.22;;;7.13
70819;BMP280;58439;51.046;13.692;2023-02-03T15:44:48;99865.03;;;7.14
70819;BMP280;58439;51.046;13.692;2023-02-03T15:47:34;99889.38;;;7.22
70819;BMP280;58439;51.046;13.692;2023-02-03T15:50:47;99872.25;;;7.27
70819;BMP280;58439;51.046;13.692;2023-02-03T15:53:03;99874.59;;;7.22
70819;BMP280;58439;51.046;13.692;2023-02-03T15:55:40;99870.03;;;7.16
70819;BMP280;58439;51.046;13.692;2023-02-03T15:58:22;99882.91;;;7.17
70819;BMP280;58439;51.046;13.692;2023-02-03T16:00:59;99878.44;;;7.26
70819;BMP280;58439;51.046;13.692;2023-02-03T16:03:41;99874.34;;;7.32
70819;BMP280;58439;51.046;13.692;2023-02-03T16:06:30;99879.53;;;7.32
70819;BMP280;58439;51.046;13.692;2023-02-03T16:09:05;99874.69;;;7.29
70819;BMP280;58439;51.046;13.692;2023-02-03T16:11:35;99890.31;;;7.29
70819;BMP280;58439;51.046;13.692;2023-02-03T16:14:06;99882.50;;;7.29
70819;BMP280;58439;51.046;13.692;2023-02-03T16:16:39;99893.06;;;7.27
70819;BMP280;58439;51.046;13.692;2023-02-03T16:19:15;99891.94;;;7.30
70819;BMP280;58439;51.046;13.692;2023-02-03T16:29:46;99910.06;;;7.38
70819;BMP280;58439;51.046;13.692;2023-02-03T16:32:36;99912.16;;;7.42
70819;BMP280;58439;51.046;13.692;2023-02-03T16:35:22;99919.84;;;7.36
70819;BMP280;58439;51.046;13.692;2023-02-03T16:38:14;99935.09;;;7.39
70819;BMP280;58439;51.046;13.692;2023-02-03T16:41:03;99921.94;;;7.40
70819;BMP280;58439;51.046;13.692;2023-02-03T16:43:56;99924.13;;;7.29
70819;BMP280;58439;51.046;13.692;2023-02-03T16:46:42;99918.06;;;7.36
70819;BMP280;58439;51.046;13.692;2023-02-03T16:49:28;99932.69;;;7.37
70819;BMP280;58439;51.046;13.692;2023-02-03T16:52:23;99916.81;;;7.32
70819;BMP280;58439;51.046;13.692;2023-02-03T16:54:50;99925.06;;;7.36
70819;BMP280;58439;51.046;13.692;2023-02-03T16:57:17;99929.91;;;7.39
70819;BMP280;58439;51.046;13.692;2023-02-03T16:59:47;99943.09;;;7.37
70819;BMP280;58439;51.046;13.692;2023-02-03T17:02:14;99958.19;;;7.42
70819;BMP280;58439;51.046;13.692;2023-02-03T17:04:42;99940.97;;;7.41
70819;BMP280;58439;51.046;13.692;2023-02-03T17:07:09;99956.47;;;7.34